Time;durP1;ratioP1;P1;durP2;ratioP2;P2;SDS_P1;SDS_P2;PMS_P1;PMS_P2;Temp;Humidity;BMP_temperature;BMP_pressure;BME280_temperature;BME280_humidity;BME280_pressure;Samples;Min_cycle;Max_cycle;Signal;HPM_P1;HPM_P2
2023/12/07 00:01:11;;;;;;;62.43;35.73;;;;;;;;;;5055155;28;20404;-73
2023/12/07 00:03:37;;;;;;;58.07;34.13;;;;;;;;;;5055710;28;20452;-71
2023/12/07 00:06:03;;;;;;;63.90;36.27;;;;;;;;;;5037812;28;20203;-69
2023/12/07 00:08:29;;;;;;;66.07;35.50;;;;;;;;;;5037211;28;20663;-70
2023/12/07 00:10:55;;;;;;;77.80;36.43;;;;;;;;;;5055318;28;20408;-68
2023/12/07 00:13:21;;;;;;;56.53;35.17;;;;;;;;;;5055529;28;20698;-70
2023/12/07 00:15:47;;;;;;;58.87;35.13;;;;;;;;;;5055546;28;20206;-72
2023/12/07 00:18:13;;;;;;;62.57;35.10;;;;;;;;;;5037149;28;20221;-70
2023/12/07 00:20:39;;;;;;;57.87;35.10;;;;;;;;;;5037696;28;20923;-70
2023/12/07 00:23:05;;;;;;;58.23;34.50;;;;;;;;;;5056040;28;20185;-69
2023/12/07 00:25:31;;;;;;;59.57;35.03;;;;;;;;;;5055707;28;20352;-69
2023/12/07 00:27:57;;;;;;;66.70;35.43;;;;;;;;;;5056084;28;20430;-70
2023/12/07 00:30:23;;;;;;;59.80;33.87;;;;;;;;;;5055815;28;20409;-70
2023/12/07 00:32:49;;;;;;;62.77;34.47;;;;;;;;;;5037911;28;20273;-71
2023/12/07 00:35:16;;;;;;;70.53;37.47;;;;;;;;;;5055987;28;20463;-70
2023/12/07 00:37:42;;;;;;;62.17;35.40;;;;;;;;;;5037824;28;20703;-69
2023/12/07 00:40:08;;;;;;;57.07;34.77;;;;;;;;;;5055773;28;20401;-70
2023/12/07 00:42:37;;;;;;;58.00;34.90;;;;;;;;;;5037573;28;20187;-70
2023/12/07 00:45:04;;;;;;;63.77;36.23;;;;;;;;;;5037288;28;20408;-69
2023/12/07 00:47:29;;;;;;;55.27;34.50;;;;;;;;;;5037175;28;20449;-70
2023/12/07 00:49:55;;;;;;;57.83;36.33;;;;;;;;;;5055416;28;20863;-70
2023/12/07 00:52:21;;;;;;;56.83;33.97;;;;;;;;;;5055138;28;20182;-69
2023/12/07 00:54:47;;;;;;;63.60;36.07;;;;;;;;;;5037445;28;20186;-69
2023/12/07 00:57:13;;;;;;;68.97;38.87;;;;;;;;;;5055141;28;20254;-69
2023/12/07 00:59:39;;;;;;;74.47;40.47;;;;;;;;;;5055146;28;20217;-70
2023/12/07 01:02:05;;;;;;;69.20;38.77;;;;;;;;;;5056811;28;20174;-70
2023/12/07 01:04:32;;;;;;;67.63;39.53;;;;;;;;;;5057987;28;20183;-70
2023/12/07 01:06:58;;;;;;;69.77;39.87;;;;;;;;;;5058574;28;20481;-69
2023/12/07 01:09:24;;;;;;;61.93;37.90;;;;;;;;;;5058551;28;20424;-70
2023/12/07 01:11:51;;;;;;;71.50;39.17;;;;;;;;;;5058443;28;20420;-69
2023/12/07 01:14:17;;;;;;;64.30;37.77;;;;;;;;;;5058966;28;20408;-70
2023/12/07 01:16:43;;;;;;;63.33;37.43;;;;;;;;;;5058212;28;20516;-69
2023/12/07 01:19:09;;;;;;;63.33;37.97;;;;;;;;;;5058440;28;20465;-70
2023/12/07 01:21:35;;;;;;;69.63;39.93;;;;;;;;;;5057801;28;20401;-70
2023/12/07 01:24:02;;;;;;;79.03;42.00;;;;;;;;;;5058072;28;21006;-70
2023/12/07 01:26:28;;;;;;;87.47;41.17;;;;;;;;;;5040207;28;20270;-70
2023/12/07 01:28:54;;;;;;;116.57;46.17;;;;;;;;;;5058405;28;20927;-70
2023/12/07 01:31:20;;;;;;;78.80;41.53;;;;;;;;;;5057438;28;20572;-70
2023/12/07 01:33:45;;;;;;;100.80;44.73;;;;;;;;;;5057693;28;20178;-70
2023/12/07 01:36:12;;;;;;;160.13;44.17;;;;;;;;;;5057076;28;20672;-68
2023/12/07 01:38:38;;;;;;;85.83;41.73;;;;;;;;;;5057216;28;20238;-69
2023/12/07 01:41:04;;;;;;;275.40;50.90;;;;;;;;;;5056346;28;20459;-70
2023/12/07 01:43:30;;;;;;;207.90;44.43;;;;;;;;;;5039920;28;20179;-70
2023/12/07 01:45:57;;;;;;;88.87;41.00;;;;;;;;;;5057582;28;20461;-70
2023/12/07 01:48:24;;;;;;;144.60;41.03;;;;;;;;;;5057545;28;20479;-70
2023/12/07 01:50:51;;;;;;;259.77;43.93;;;;;;;;;;5057509;28;20432;-70
2023/12/07 01:53:17;;;;;;;204.03;42.97;;;;;;;;;;5057975;28;20416;-70
2023/12/07 01:55:44;;;;;;;176.87;45.03;;;;;;;;;;5057777;28;20802;-70
2023/12/07 01:58:10;;;;;;;157.30;41.67;;;;;;;;;;5058194;28;20563;-70
2023/12/07 02:00:36;;;;;;;220.97;46.07;;;;;;;;;;5039585;28;20416;-70
2023/12/07 02:03:05;;;;;;;203.77;46.60;;;;;;;;;;5057584;28;20416;-69
2023/12/07 02:05:32;;;;;;;304.20;46.13;;;;;;;;;;5039349;28;20464;-69
2023/12/07 02:07:58;;;;;;;163.20;43.50;;;;;;;;;;5057507;28;20416;-70
2023/12/07 02:10:24;;;;;;;215.97;42.03;;;;;;;;;;5056740;28;20413;-70
2023/12/07 02:12:51;;;;;;;147.33;42.23;;;;;;;;;;5056692;28;20413;-70
2023/12/07 02:15:17;;;;;;;143.33;41.33;;;;;;;;;;5056836;28;20423;-69
2023/12/07 02:17:51;;;;;;;288.73;42.63;;;;;;;;;;5039073;28;20488;-69
2023/12/07 02:20:31;;;;;;;363.30;48.80;;;;;;;;;;5057164;28;20386;-69
2023/12/07 02:23:04;;;;;;;210.87;43.73;;;;;;;;;;5057289;28;20405;-68
2023/12/07 02:25:33;;;;;;;242.70;42.27;;;;;;;;;;5039197;28;20475;-67
2023/12/07 02:27:59;;;;;;;219.67;41.57;;;;;;;;;;5056855;28;20412;-69
2023/12/07 02:30:25;;;;;;;247.13;45.77;;;;;;;;;;5039418;28;20761;-71
2023/12/07 02:32:51;;;;;;;213.87;44.90;;;;;;;;;;5057063;28;20179;-68
2023/12/07 02:35:17;;;;;;;142.33;42.07;;;;;;;;;;5057013;28;20650;-70
2023/12/07 02:37:44;;;;;;;129.40;42.27;;;;;;;;;;5056586;28;20202;-70
2023/12/07 02:40:11;;;;;;;317.33;45.07;;;;;;;;;;5056619;28;20178;-70
2023/12/07 02:42:40;;;;;;;142.33;40.97;;;;;;;;;;5056426;28;20910;-70
2023/12/07 02:45:07;;;;;;;364.73;49.97;;;;;;;;;;5056985;28;20447;-70
2023/12/07 02:47:33;;;;;;;114.40;42.83;;;;;;;;;;5056687;28;21013;-70
2023/12/07 02:49:59;;;;;;;134.07;43.53;;;;;;;;;;5056826;28;20401;-70
2023/12/07 02:52:25;;;;;;;244.53;45.17;;;;;;;;;;5057159;28;20431;-69
2023/12/07 02:54:51;;;;;;;125.23;42.40;;;;;;;;;;5068527;28;20409;-69
2023/12/07 02:57:17;;;;;;;102.37;42.87;;;;;;;;;;5071308;28;20453;-70
2023/12/07 02:59:43;;;;;;;95.17;43.80;;;;;;;;;;5071612;28;20197;-70
2023/12/07 03:02:09;;;;;;;100.33;44.07;;;;;;;;;;5053620;28;20185;-68
2023/12/07 03:04:35;;;;;;;106.57;43.17;;;;;;;;;;5053071;28;20414;-70
2023/12/07 03:07:01;;;;;;;101.57;45.10;;;;;;;;;;5070595;28;20201;-70
2023/12/07 03:09:27;;;;;;;85.30;42.70;;;;;;;;;;5066297;28;20273;-71
2023/12/07 03:11:53;;;;;;;95.23;43.97;;;;;;;;;;5037441;28;20237;-72
2023/12/07 03:14:19;;;;;;;94.87;44.33;;;;;;;;;;5037705;28;20174;-72
2023/12/07 03:16:45;;;;;;;91.00;41.87;;;;;;;;;;5037677;28;20244;-69
2023/12/07 03:19:11;;;;;;;90.13;40.83;;;;;;;;;;5055441;28;20464;-73
2023/12/07 03:21:42;;;;;;;79.33;41.00;;;;;;;;;;5055486;28;20413;-71
2023/12/07 03:24:08;;;;;;;88.50;43.67;;;;;;;;;;5054620;28;20432;-71
2023/12/07 03:26:34;;;;;;;91.33;43.43;;;;;;;;;;5037121;28;21035;-71
2023/12/07 03:29:00;;;;;;;96.00;42.27;;;;;;;;;;5037232;28;20232;-73
2023/12/07 03:31:26;;;;;;;87.17;41.87;;;;;;;;;;5037297;28;20500;-71
2023/12/07 03:33:53;;;;;;;96.37;42.90;;;;;;;;;;5055420;28;20346;-71
2023/12/07 03:36:19;;;;;;;90.80;42.47;;;;;;;;;;5055206;28;20194;-71
2023/12/07 03:38:45;;;;;;;94.17;43.50;;;;;;;;;;5037142;28;20482;-71
2023/12/07 03:41:11;;;;;;;86.30;41.13;;;;;;;;;;5037648;28;20664;-70
2023/12/07 03:43:37;;;;;;;87.23;42.30;;;;;;;;;;5055194;28;20174;-70
2023/12/07 03:46:06;;;;;;;89.97;40.33;;;;;;;;;;5037299;28;20272;-70
2023/12/07 03:48:32;;;;;;;84.37;39.90;;;;;;;;;;5055284;28;20189;-70
2023/12/07 03:50:58;;;;;;;86.93;40.30;;;;;;;;;;5054827;28;20178;-70
2023/12/07 03:53:24;;;;;;;93.23;41.77;;;;;;;;;;5055089;28;20186;-70
2023/12/07 03:55:50;;;;;;;87.30;41.30;;;;;;;;;;5055439;28;20198;-71
2023/12/07 03:58:16;;;;;;;91.00;41.40;;;;;;;;;;5036627;28;20743;-71
2023/12/07 04:00:42;;;;;;;82.47;40.13;;;;;;;;;;5054969;28;20647;-71
2023/12/07 04:03:09;;;;;;;85.87;40.03;;;;;;;;;;5055876;28;20177;-71
2023/12/07 04:05:35;;;;;;;84.17;40.83;;;;;;;;;;5039271;28;20597;-69
2023/12/07 04:08:01;;;;;;;86.43;41.77;;;;;;;;;;5057005;28;20205;-69
2023/12/07 04:10:27;;;;;;;76.20;37.57;;;;;;;;;;5039335;28;20599;-69
2023/12/07 04:12:53;;;;;;;75.13;39.63;;;;;;;;;;5037708;28;20193;-69
2023/12/07 04:15:19;;;;;;;78.73;39.30;;;;;;;;;;5038390;28;20265;-70
2023/12/07 04:17:46;;;;;;;83.90;40.10;;;;;;;;;;5038208;28;20240;-70
2023/12/07 04:20:15;;;;;;;73.27;37.93;;;;;;;;;;5038007;28;20186;-66
2023/12/07 04:22:44;;;;;;;81.00;39.30;;;;;;;;;;5037495;28;20179;-67
2023/12/07 04:25:10;;;;;;;74.07;37.90;;;;;;;;;;5055471;28;20178;-68
2023/12/07 04:27:36;;;;;;;73.27;37.03;;;;;;;;;;5055046;28;20515;-68
2023/12/07 04:30:03;;;;;;;68.40;37.77;;;;;;;;;;5055346;28;20183;-66
2023/12/07 04:32:29;;;;;;;76.50;39.63;;;;;;;;;;5037366;28;20273;-68
2023/12/07 04:34:58;;;;;;;78.57;39.73;;;;;;;;;;5037293;28;20183;-69
2023/12/07 04:37:24;;;;;;;89.37;40.83;;;;;;;;;;5057754;28;20199;-68
2023/12/07 04:39:50;;;;;;;96.77;42.37;;;;;;;;;;5040314;28;20221;-68
2023/12/07 04:42:16;;;;;;;81.50;40.57;;;;;;;;;;5058411;28;20197;-69
2023/12/07 04:44:42;;;;;;;84.87;39.47;;;;;;;;;;5040190;28;20332;-69
2023/12/07 04:47:08;;;;;;;94.00;42.50;;;;;;;;;;5057976;28;20206;-70
2023/12/07 04:49:34;;;;;;;98.83;43.27;;;;;;;;;;5040742;28;20268;-71
2023/12/07 04:52:02;;;;;;;95.37;42.77;;;;;;;;;;5058620;28;20306;-69
2023/12/07 04:54:28;;;;;;;92.30;44.03;;;;;;;;;;5040318;28;20273;-67
2023/12/07 04:56:54;;;;;;;103.73;45.73;;;;;;;;;;5040453;28;20237;-67
2023/12/07 04:59:20;;;;;;;101.70;44.87;;;;;;;;;;5058201;28;20264;-67
2023/12/07 05:01:47;;;;;;;102.30;45.23;;;;;;;;;;5058142;28;20174;-69
2023/12/07 05:04:14;;;;;;;102.07;45.67;;;;;;;;;;5040307;28;20174;-69
2023/12/07 05:06:40;;;;;;;93.80;41.50;;;;;;;;;;5057835;28;20198;-68
2023/12/07 05:09:09;;;;;;;101.27;43.77;;;;;;;;;;5040202;28;20187;-68
2023/12/07 05:11:36;;;;;;;91.47;43.07;;;;;;;;;;5040123;28;20182;-70
2023/12/07 05:14:03;;;;;;;102.60;46.50;;;;;;;;;;5040994;28;20523;-68
2023/12/07 05:16:29;;;;;;;104.83;46.47;;;;;;;;;;5040300;28;20676;-69
2023/12/07 05:18:55;;;;;;;114.10;49.43;;;;;;;;;;5057527;28;20205;-68
2023/12/07 05:21:21;;;;;;;111.07;45.80;;;;;;;;;;5057967;28;20261;-70
2023/12/07 05:23:48;;;;;;;113.73;48.03;;;;;;;;;;5057520;28;20178;-69
2023/12/07 05:26:14;;;;;;;117.97;48.77;;;;;;;;;;5057835;28;20187;-68
2023/12/07 05:28:40;;;;;;;112.67;47.80;;;;;;;;;;5057739;28;20197;-67
2023/12/07 05:31:06;;;;;;;110.87;49.70;;;;;;;;;;5057710;28;20633;-68
2023/12/07 05:33:33;;;;;;;117.27;48.53;;;;;;;;;;5039507;28;20251;-67
2023/12/07 05:36:00;;;;;;;134.07;52.60;;;;;;;;;;5039065;28;20233;-69
2023/12/07 05:38:26;;;;;;;121.03;49.97;;;;;;;;;;5056365;28;20237;-67
2023/12/07 05:40:52;;;;;;;114.40;47.10;;;;;;;;;;5057005;28;20182;-69
2023/12/07 05:43:18;;;;;;;125.30;51.20;;;;;;;;;;5038866;28;20178;-69
2023/12/07 05:45:44;;;;;;;126.60;49.33;;;;;;;;;;5056930;28;20194;-69
2023/12/07 05:48:11;;;;;;;130.30;49.10;;;;;;;;;;5057059;28;20770;-68
2023/12/07 05:50:39;;;;;;;128.73;49.30;;;;;;;;;;5038768;28;20260;-68
2023/12/07 05:53:05;;;;;;;145.07;52.70;;;;;;;;;;5056496;28;20171;-69
2023/12/07 05:55:31;;;;;;;140.77;50.17;;;;;;;;;;5056954;28;20189;-69
2023/12/07 05:57:57;;;;;;;135.13;48.10;;;;;;;;;;5056624;28;20275;-68
2023/12/07 06:00:23;;;;;;;137.33;49.83;;;;;;;;;;5038657;28;20209;-68
2023/12/07 06:02:49;;;;;;;140.93;49.50;;;;;;;;;;5056840;28;20175;-70
2023/12/07 06:05:15;;;;;;;127.63;48.70;;;;;;;;;;5056992;28;20167;-69
2023/12/07 06:07:41;;;;;;;140.37;49.07;;;;;;;;;;5056555;28;20237;-70
2023/12/07 06:10:07;;;;;;;148.10;51.40;;;;;;;;;;5038530;28;20603;-71
2023/12/07 06:12:33;;;;;;;152.27;51.10;;;;;;;;;;5038076;28;20417;-68
2023/12/07 06:14:59;;;;;;;135.83;50.10;;;;;;;;;;5056263;28;20174;-69
2023/12/07 06:17:25;;;;;;;153.87;51.80;;;;;;;;;;5038381;28;20201;-70
2023/12/07 06:19:51;;;;;;;132.90;51.47;;;;;;;;;;5038728;28;20210;-69
2023/12/07 06:22:17;;;;;;;172.47;55.13;;;;;;;;;;5056058;28;20170;-69
2023/12/07 06:24:44;;;;;;;143.43;50.97;;;;;;;;;;5056016;28;20198;-69
2023/12/07 06:27:10;;;;;;;153.67;52.47;;;;;;;;;;5037957;28;20199;-68
2023/12/07 06:29:36;;;;;;;162.17;51.47;;;;;;;;;;5056211;28;20423;-69
2023/12/07 06:32:03;;;;;;;175.30;53.17;;;;;;;;;;5055937;28;20179;-70
2023/12/07 06:34:32;;;;;;;157.00;51.97;;;;;;;;;;5037918;28;20663;-70
2023/12/07 06:36:58;;;;;;;137.17;49.83;;;;;;;;;;5037854;28;20677;-69
2023/12/07 06:39:24;;;;;;;138.57;50.60;;;;;;;;;;5038042;28;20237;-69
2023/12/07 06:41:53;;;;;;;139.13;49.97;;;;;;;;;;5055716;28;20625;-69
2023/12/07 06:44:19;;;;;;;149.80;48.13;;;;;;;;;;5056255;28;20166;-70
2023/12/07 06:46:45;;;;;;;168.93;48.10;;;;;;;;;;5055663;28;20217;-68
2023/12/07 06:49:12;;;;;;;155.73;47.67;;;;;;;;;;5055504;28;20640;-69
2023/12/07 06:51:38;;;;;;;157.47;46.20;;;;;;;;;;5039149;28;20189;-69
2023/12/07 06:54:04;;;;;;;185.23;50.20;;;;;;;;;;5056756;28;20194;-72
2023/12/07 06:56:30;;;;;;;153.67;45.77;;;;;;;;;;5056782;28;20218;-68
2023/12/07 06:58:56;;;;;;;139.60;47.50;;;;;;;;;;5055568;28;20194;-70
2023/12/07 07:01:22;;;;;;;169.07;48.23;;;;;;;;;;5056067;28;20186;-71
2023/12/07 07:03:48;;;;;;;164.60;52.33;;;;;;;;;;5037820;28;20179;-69
2023/12/07 07:06:14;;;;;;;287.13;57.43;;;;;;;;;;5055170;28;20198;-68
2023/12/07 07:08:40;;;;;;;203.60;54.07;;;;;;;;;;5055251;28;20717;-70
2023/12/07 07:11:15;;;;;;;212.47;54.80;;;;;;;;;;5054978;28;20182;-70
2023/12/07 07:13:41;;;;;;;312.23;54.10;;;;;;;;;;5055212;28;20602;-69
2023/12/07 07:16:08;;;;;;;308.27;58.97;;;;;;;;;;5054804;28;20432;-69
2023/12/07 07:18:35;;;;;;;270.17;51.17;;;;;;;;;;5036656;28;20680;-69
2023/12/07 07:21:01;;;;;;;180.07;51.23;;;;;;;;;;5036834;28;20425;-69
2023/12/07 07:23:27;;;;;;;311.13;51.60;;;;;;;;;;5036823;28;20182;-69
2023/12/07 07:25:53;;;;;;;336.30;54.90;;;;;;;;;;5054626;28;20281;-70
2023/12/07 07:28:20;;;;;;;202.43;49.23;;;;;;;;;;5055019;28;20189;-70
2023/12/07 07:30:46;;;;;;;1113.87;98.80;;;;;;;;;;5036671;28;20425;-69
2023/12/07 07:33:12;;;;;;;304.57;52.07;;;;;;;;;;5054208;28;20186;-68
2023/12/07 07:35:38;;;;;;;422.70;55.77;;;;;;;;;;5036869;28;20190;-70
2023/12/07 07:38:04;;;;;;;267.83;52.23;;;;;;;;;;5055381;28;20198;-69
2023/12/07 07:40:30;;;;;;;234.17;50.17;;;;;;;;;;5036751;28;20185;-69
2023/12/07 07:42:56;;;;;;;260.03;52.13;;;;;;;;;;5037017;28;20185;-69
2023/12/07 07:45:22;;;;;;;247.03;52.27;;;;;;;;;;5054431;28;20187;-70
2023/12/07 07:47:47;;;;;;;159.83;51.43;;;;;;;;;;5037041;28;20190;-69
2023/12/07 07:50:14;;;;;;;321.17;65.03;;;;;;;;;;5054848;28;20175;-69
2023/12/07 07:52:40;;;;;;;305.67;75.53;;;;;;;;;;5036641;28;20178;-69
2023/12/07 07:55:07;;;;;;;183.13;47.87;;;;;;;;;;5036922;28;20185;-68
2023/12/07 07:57:33;;;;;;;225.60;54.67;;;;;;;;;;5036958;28;20203;-71
2023/12/07 07:59:59;;;;;;;163.23;49.80;;;;;;;;;;5036874;28;20710;-69
2023/12/07 08:02:25;;;;;;;223.13;47.17;;;;;;;;;;5054765;28;20182;-70
2023/12/07 08:04:51;;;;;;;194.07;53.10;;;;;;;;;;5055082;28;20413;-67
2023/12/07 08:07:17;;;;;;;194.73;52.33;;;;;;;;;;5054721;28;20209;-68
2023/12/07 08:09:43;;;;;;;175.47;50.07;;;;;;;;;;5055001;28;20244;-68
2023/12/07 08:12:09;;;;;;;250.27;50.67;;;;;;;;;;5058824;28;20633;-69
2023/12/07 08:14:36;;;;;;;248.23;52.27;;;;;;;;;;5040586;28;20182;-68
2023/12/07 08:17:02;;;;;;;217.60;49.40;;;;;;;;;;5058516;28;20229;-68
2023/12/07 08:19:28;;;;;;;148.73;45.67;;;;;;;;;;5040556;28;20299;-70
2023/12/07 08:21:54;;;;;;;207.20;47.47;;;;;;;;;;5040179;28;20170;-69
2023/12/07 08:24:20;;;;;;;228.00;46.27;;;;;;;;;;5058312;28;20170;-70
2023/12/07 08:26:46;;;;;;;179.00;50.83;;;;;;;;;;5058305;28;20564;-69
2023/12/07 08:29:13;;;;;;;209.63;48.33;;;;;;;;;;5058671;28;20664;-68
2023/12/07 08:31:39;;;;;;;344.93;91.47;;;;;;;;;;5058292;28;20704;-70
2023/12/07 08:34:04;;;;;;;185.23;48.33;;;;;;;;;;5058062;28;20178;-68
2023/12/07 08:36:30;;;;;;;189.80;48.30;;;;;;;;;;5057815;28;20199;-69
2023/12/07 08:38:56;;;;;;;144.07;44.83;;;;;;;;;;5058047;28;20194;-69
2023/12/07 08:41:23;;;;;;;299.23;49.87;;;;;;;;;;5039671;28;20206;-69
2023/12/07 08:43:49;;;;;;;248.63;48.10;;;;;;;;;;5057901;28;20543;-69
2023/12/07 08:46:15;;;;;;;329.70;49.60;;;;;;;;;;5039841;28;20214;-68
2023/12/07 08:48:41;;;;;;;207.63;45.80;;;;;;;;;;5039820;28;20187;-70
2023/12/07 08:51:08;;;;;;;188.47;44.73;;;;;;;;;;5058133;28;20183;-68
2023/12/07 08:53:35;;;;;;;237.57;46.80;;;;;;;;;;5057623;28;20640;-69
2023/12/07 08:56:01;;;;;;;292.00;53.00;;;;;;;;;;5040340;28;20198;-68
2023/12/07 08:58:27;;;;;;;288.07;43.73;;;;;;;;;;5057765;28;20233;-69
2023/12/07 09:00:53;;;;;;;312.47;45.27;;;;;;;;;;5058374;28;20201;-69
2023/12/07 09:03:19;;;;;;;332.30;46.80;;;;;;;;;;5057611;28;20224;-69
2023/12/07 09:05:45;;;;;;;373.07;46.60;;;;;;;;;;5039357;28;20811;-68
2023/12/07 09:08:11;;;;;;;335.13;45.00;;;;;;;;;;5057692;28;20174;-69
2023/12/07 09:10:37;;;;;;;281.60;41.60;;;;;;;;;;5057567;28;20773;-70
2023/12/07 09:13:03;;;;;;;260.40;44.27;;;;;;;;;;5039573;28;20237;-67
2023/12/07 09:15:29;;;;;;;297.93;40.73;;;;;;;;;;5057009;28;20174;-68
2023/12/07 09:17:55;;;;;;;203.97;39.63;;;;;;;;;;5057366;28;20704;-67
2023/12/07 09:20:21;;;;;;;379.10;47.70;;;;;;;;;;5057555;28;20186;-68
2023/12/07 09:22:48;;;;;;;315.57;41.73;;;;;;;;;;5038632;28;20205;-69
2023/12/07 09:25:15;;;;;;;90.53;36.77;;;;;;;;;;5039259;28;20241;-67
2023/12/07 09:27:41;;;;;;;107.13;38.73;;;;;;;;;;5057063;28;20198;-67
2023/12/07 09:30:10;;;;;;;100.70;39.23;;;;;;;;;;5057182;28;20659;-68
2023/12/07 09:32:38;;;;;;;81.53;37.83;;;;;;;;;;5039432;28;20266;-68
2023/12/07 09:35:07;;;;;;;88.80;38.63;;;;;;;;;;5039793;28;20625;-68
2023/12/07 09:37:37;;;;;;;85.17;37.43;;;;;;;;;;5056880;28;20433;-69
2023/12/07 09:40:04;;;;;;;71.53;35.87;;;;;;;;;;5057568;28;20190;-68
2023/12/07 09:42:31;;;;;;;77.70;37.00;;;;;;;;;;5057873;28;20543;-68
2023/12/07 09:44:57;;;;;;;69.53;36.03;;;;;;;;;;5057586;28;20547;-68
2023/12/07 09:47:23;;;;;;;73.17;40.67;;;;;;;;;;5039119;28;20453;-68
2023/12/07 09:49:49;;;;;;;73.17;40.43;;;;;;;;;;5039119;28;20663;-68
2023/12/07 09:52:16;;;;;;;56.50;30.83;;;;;;;;;;5057657;28;20178;-68
2023/12/07 09:54:43;;;;;;;55.07;29.53;;;;;;;;;;5056826;28;20181;-69
2023/12/07 09:57:09;;;;;;;55.90;29.87;;;;;;;;;;5056606;28;20205;-68
2023/12/07 09:59:36;;;;;;;48.47;29.77;;;;;;;;;;5057085;28;20520;-68
2023/12/07 10:02:02;;;;;;;48.93;31.13;;;;;;;;;;5057310;28;20249;-69
2023/12/07 10:04:28;;;;;;;52.80;30.10;;;;;;;;;;5057134;28;20206;-68
2023/12/07 10:06:54;;;;;;;43.83;27.83;;;;;;;;;;5056736;28;20194;-69
2023/12/07 10:09:21;;;;;;;50.40;29.90;;;;;;;;;;5057107;28;20582;-68
2023/12/07 10:11:47;;;;;;;49.70;31.67;;;;;;;;;;5039858;28;20187;-67
2023/12/07 10:14:13;;;;;;;56.13;30.33;;;;;;;;;;5038151;28;20178;-69
2023/12/07 10:16:39;;;;;;;55.83;31.67;;;;;;;;;;5056499;28;20668;-68
2023/12/07 10:19:17;;;;;;;52.17;30.93;;;;;;;;;;5038100;28;20212;-68
2023/12/07 10:21:43;;;;;;;53.80;30.87;;;;;;;;;;5056509;28;20178;-68
2023/12/07 10:24:09;;;;;;;52.27;29.33;;;;;;;;;;5056489;28;20170;-68
2023/12/07 10:26:36;;;;;;;58.80;31.80;;;;;;;;;;5056686;28;20202;-68
2023/12/07 10:29:05;;;;;;;45.03;27.80;;;;;;;;;;5056208;28;20224;-68
2023/12/07 10:31:31;;;;;;;47.27;28.77;;;;;;;;;;5056681;28;20189;-68
2023/12/07 10:33:58;;;;;;;52.43;30.43;;;;;;;;;;5038759;28;20181;-68
2023/12/07 10:36:23;;;;;;;53.30;28.40;;;;;;;;;;5055881;28;20202;-68
2023/12/07 10:38:52;;;;;;;48.70;27.80;;;;;;;;;;5038131;28;20640;-68
2023/12/07 10:41:20;;;;;;;53.50;28.63;;;;;;;;;;5038630;28;20259;-67
2023/12/07 10:43:48;;;;;;;53.17;30.47;;;;;;;;;;5056146;28;20173;-68
2023/12/07 10:46:18;;;;;;;45.57;28.90;;;;;;;;;;5037773;28;20222;-66
2023/12/07 10:48:47;;;;;;;48.27;26.43;;;;;;;;;;5038403;28;20190;-72
2023/12/07 10:51:14;;;;;;;48.90;28.87;;;;;;;;;;5037989;28;20182;-68
2023/12/07 10:53:44;;;;;;;49.03;27.30;;;;;;;;;;5055927;28;20182;-68
2023/12/07 10:56:11;;;;;;;47.87;27.43;;;;;;;;;;5055698;28;20206;-68
2023/12/07 10:58:38;;;;;;;50.40;28.43;;;;;;;;;;5037684;28;20237;-67
2023/12/07 11:01:04;;;;;;;45.53;27.83;;;;;;;;;;5055635;28;20185;-68
2023/12/07 11:03:31;;;;;;;50.77;28.27;;;;;;;;;;5055743;28;20258;-68
2023/12/07 11:05:57;;;;;;;48.33;28.63;;;;;;;;;;5037439;28;20191;-68
2023/12/07 11:08:32;;;;;;;52.77;30.13;;;;;;;;;;5055239;28;20186;-68
2023/12/07 11:11:16;;;;;;;47.10;28.33;;;;;;;;;;5055767;28;20182;-67
2023/12/07 11:13:48;;;;;;;45.47;27.30;;;;;;;;;;5037294;28;20327;-68
2023/12/07 11:16:14;;;;;;;46.97;25.90;;;;;;;;;;5055511;28;20194;-68
2023/12/07 11:18:40;;;;;;;42.03;25.63;;;;;;;;;;5037042;28;20695;-69
2023/12/07 11:21:06;;;;;;;53.83;34.80;;;;;;;;;;5037826;28;20186;-69
2023/12/07 11:23:32;;;;;;;39.83;25.23;;;;;;;;;;5037571;28;20277;-68
2023/12/07 11:25:58;;;;;;;41.73;26.17;;;;;;;;;;5055023;28;20202;-67
2023/12/07 11:28:38;;;;;;;37.30;22.83;;;;;;;;;;5055590;28;20181;-68
2023/12/07 11:31:06;;;;;;;37.43;23.00;;;;;;;;;;5054929;28;20555;-67
2023/12/07 11:33:32;;;;;;;36.37;23.37;;;;;;;;;;5037462;28;20194;-69
2023/12/07 11:36:05;;;;;;;39.87;24.83;;;;;;;;;;5037211;28;20603;-67
2023/12/07 11:38:31;;;;;;;39.27;21.63;;;;;;;;;;5055038;28;20555;-68
2023/12/07 11:40:57;;;;;;;31.63;22.20;;;;;;;;;;5037019;28;20254;-67
2023/12/07 11:43:31;;;;;;;32.23;20.50;;;;;;;;;;5055169;28;20263;-67
2023/12/07 11:45:58;;;;;;;25.53;18.87;;;;;;;;;;5054929;28;20205;-67
2023/12/07 11:48:24;;;;;;;25.07;18.93;;;;;;;;;;5054680;28;20182;-68
2023/12/07 11:50:58;;;;;;;22.33;17.30;;;;;;;;;;5054849;28;20194;-67
2023/12/07 11:53:25;;;;;;;28.40;17.40;;;;;;;;;;5055135;28;20185;-67
2023/12/07 11:55:51;;;;;;;25.13;16.40;;;;;;;;;;5054847;28;20672;-68
2023/12/07 11:58:18;;;;;;;24.57;18.10;;;;;;;;;;5054974;28;20204;-67
2023/12/07 12:00:46;;;;;;;26.40;17.23;;;;;;;;;;5054777;28;20174;-66
2023/12/07 12:03:12;;;;;;;19.87;14.83;;;;;;;;;;5054827;28;20171;-66
2023/12/07 12:05:40;;;;;;;18.17;14.60;;;;;;;;;;5036102;28;20205;-66
2023/12/07 12:08:06;;;;;;;19.67;14.60;;;;;;;;;;5037881;28;20189;-65
2023/12/07 12:10:32;;;;;;;24.77;15.97;;;;;;;;;;5054854;28;20183;-65
2023/12/07 12:12:57;;;;;;;18.50;14.50;;;;;;;;;;5055184;28;20182;-67
2023/12/07 12:15:23;;;;;;;29.50;19.57;;;;;;;;;;5055018;28;20257;-67
2023/12/07 12:17:49;;;;;;;24.50;16.57;;;;;;;;;;5037510;28;20534;-67
2023/12/07 12:20:17;;;;;;;20.77;15.00;;;;;;;;;;5037130;28;20182;-68
2023/12/07 12:22:43;;;;;;;17.57;14.40;;;;;;;;;;5054862;28;20174;-68
2023/12/07 12:25:10;;;;;;;21.23;15.20;;;;;;;;;;5055112;28;20257;-68
2023/12/07 12:27:36;;;;;;;17.50;14.23;;;;;;;;;;5037621;28;20603;-67
2023/12/07 12:30:03;;;;;;;20.73;14.73;;;;;;;;;;5055583;28;20262;-66
2023/12/07 12:32:42;;;;;;;20.03;14.70;;;;;;;;;;5055515;28;20234;-66
2023/12/07 12:35:09;;;;;;;18.00;14.33;;;;;;;;;;5055581;28;20163;-67
2023/12/07 12:37:35;;;;;;;18.17;14.07;;;;;;;;;;5055586;28;20202;-68
2023/12/07 12:40:05;;;;;;;17.43;13.63;;;;;;;;;;5054591;28;20265;-67
2023/12/07 12:42:31;;;;;;;19.53;13.47;;;;;;;;;;5054331;28;20162;-68
2023/12/07 12:44:58;;;;;;;19.20;14.43;;;;;;;;;;5054613;28;20171;-67
2023/12/07 12:47:24;;;;;;;18.50;13.87;;;;;;;;;;5054038;28;20710;-71
2023/12/07 12:49:50;;;;;;;19.70;14.70;;;;;;;;;;5054738;28;20266;-67
2023/12/07 12:52:16;;;;;;;22.67;13.40;;;;;;;;;;5036704;28;20239;-66
2023/12/07 12:54:46;;;;;;;19.63;13.53;;;;;;;;;;5036394;28;20239;-68
2023/12/07 12:57:12;;;;;;;17.67;13.40;;;;;;;;;;5037128;28;20210;-68
2023/12/07 12:59:38;;;;;;;19.40;14.07;;;;;;;;;;5058214;28;20209;-68
2023/12/07 13:02:04;;;;;;;19.27;13.43;;;;;;;;;;5058221;28;20711;-68
2023/12/07 13:04:31;;;;;;;16.87;12.87;;;;;;;;;;5039912;28;20289;-67
2023/12/07 13:06:57;;;;;;;21.03;14.17;;;;;;;;;;5039684;28;20198;-67
2023/12/07 13:09:23;;;;;;;19.87;13.60;;;;;;;;;;5057884;28;20179;-67
2023/12/07 13:11:50;;;;;;;20.70;12.70;;;;;;;;;;5040114;28;20179;-67
2023/12/07 13:14:17;;;;;;;17.50;13.03;;;;;;;;;;5057514;28;20182;-67
2023/12/07 13:16:43;;;;;;;17.80;13.00;;;;;;;;;;5039517;28;20654;-69
2023/12/07 13:19:09;;;;;;;16.23;13.27;;;;;;;;;;5058088;28;20198;-68
2023/12/07 13:21:35;;;;;;;17.47;13.30;;;;;;;;;;5057717;28;20191;-67
2023/12/07 13:24:04;;;;;;;16.00;12.30;;;;;;;;;;5057265;28;20178;-66
2023/12/07 13:26:30;;;;;;;16.30;12.50;;;;;;;;;;5057365;28;20218;-66
2023/12/07 13:28:56;;;;;;;17.27;11.83;;;;;;;;;;5057649;28;20648;-67
2023/12/07 13:31:22;;;;;;;15.23;11.37;;;;;;;;;;5057465;28;20209;-68
2023/12/07 13:33:48;;;;;;;14.33;11.97;;;;;;;;;;5057218;28;20202;-67
2023/12/07 13:36:17;;;;;;;14.90;11.90;;;;;;;;;;5057361;28;20287;-67
2023/12/07 13:38:43;;;;;;;27.70;17.70;;;;;;;;;;5057182;28;20202;-68
2023/12/07 13:41:09;;;;;;;20.33;12.53;;;;;;;;;;5056576;28;20179;-67
2023/12/07 13:43:35;;;;;;;24.03;15.17;;;;;;;;;;5039958;28;20182;-66
2023/12/07 13:46:01;;;;;;;17.00;13.33;;;;;;;;;;5056482;28;20213;-67
2023/12/07 13:48:27;;;;;;;18.73;11.73;;;;;;;;;;5057532;28;20544;-68
2023/12/07 13:50:53;;;;;;;18.67;11.37;;;;;;;;;;5057004;28;20656;-67
2023/12/07 13:53:19;;;;;;;17.20;11.63;;;;;;;;;;5056560;28;20697;-70
2023/12/07 13:55:46;;;;;;;16.63;11.27;;;;;;;;;;5056662;28;20208;-67
2023/12/07 13:58:12;;;;;;;14.40;10.80;;;;;;;;;;5038837;28;20213;-68
2023/12/07 14:00:38;;;;;;;16.87;11.80;;;;;;;;;;5038320;28;20186;-69
2023/12/07 14:03:04;;;;;;;20.20;11.00;;;;;;;;;;5056647;28;20181;-67
2023/12/07 14:05:30;;;;;;;14.07;10.73;;;;;;;;;;5057054;28;20265;-70
2023/12/07 14:07:56;;;;;;;15.47;11.67;;;;;;;;;;5056693;28;20170;-67